createdAt,value
2018-01-02T00:00:42.595Z,1.10
2018-01-02T00:01:45.056Z,1.57
2018-01-02T00:02:47.518Z,1.07
2018-01-02T00:03:49.973Z,1.70
2018-01-02T00:04:52.430Z,1.73
2018-01-02T00:05:54.885Z,1.10
2018-01-02T00:06:57.361Z,1.70
2018-01-02T00:07:59.819Z,1.23
2018-01-02T00:09:02.274Z,1.27
2018-01-02T00:10:04.737Z,1.00
2018-01-02T00:11:07.194Z,1.10
2018-01-02T00:12:09.645Z,1.10
2018-01-02T00:13:12.108Z,1.30
2018-01-02T00:14:14.562Z,1.50
2018-01-02T00:15:17.040Z,0.93
2018-01-02T00:16:19.485Z,0.90
2018-01-02T00:17:21.937Z,1.43
2018-01-02T00:18:24.396Z,1.20
2018-01-02T00:19:26.861Z,1.00
2018-01-02T00:20:29.331Z,0.87
2018-01-02T00:21:31.798Z,1.20
2018-01-02T00:22:34.260Z,0.77
2018-01-02T00:23:36.734Z,1.13
2018-01-02T00:24:39.196Z,0.87
2018-01-02T00:25:41.641Z,1.20
2018-01-02T00:26:44.090Z,0.93
2018-01-02T00:27:46.582Z,0.90
2018-01-02T00:28:49.037Z,1.30
2018-01-02T00:29:51.490Z,0.80
2018-01-02T00:30:53.943Z,1.10
2018-01-02T00:31:56.412Z,1.23
2018-01-02T00:32:58.865Z,1.20
2018-01-02T00:34:01.310Z,1.20
2018-01-02T00:35:03.796Z,0.90
2018-01-02T00:36:06.264Z,0.90
2018-01-02T00:37:08.733Z,1.17
2018-01-02T00:38:11.302Z,0.90
2018-01-02T00:39:13.771Z,1.30
2018-01-02T00:40:16.236Z,0.83
2018-01-02T00:41:18.704Z,0.90
2018-01-02T00:42:21.167Z,1.20
2018-01-02T00:43:23.638Z,0.90
2018-01-02T00:44:26.090Z,0.90
2018-01-02T00:45:28.542Z,1.00
2018-01-02T00:46:31.011Z,1.10
2018-01-02T00:47:33.462Z,1.00
2018-01-02T00:48:35.913Z,1.27
2018-01-02T00:49:38.376Z,0.80
2018-01-02T00:50:40.826Z,1.10
2018-01-02T00:51:43.296Z,1.00
2018-01-02T00:52:45.762Z,0.90
2018-01-02T00:53:48.213Z,1.13
2018-01-02T00:54:50.666Z,0.83
2018-01-02T00:55:53.117Z,1.10
2018-01-02T00:56:55.584Z,1.07
2018-01-02T00:57:58.036Z,0.80
2018-01-02T00:59:00.487Z,1.00
2018-01-02T01:00:02.953Z,0.90
2018-01-02T01:01:05.403Z,0.97
2018-01-02T01:02:07.872Z,0.93
2018-01-02T01:03:10.339Z,1.37
2018-01-02T01:04:12.804Z,0.90
2018-01-02T01:05:15.262Z,1.20
2018-01-02T01:06:17.724Z,0.70
2018-01-02T01:07:20.187Z,0.93
2018-01-02T01:08:22.651Z,1.50
2018-01-02T01:09:25.123Z,1.37
2018-01-02T01:10:27.573Z,0.83
2018-01-02T01:11:30.026Z,1.00
2018-01-02T01:12:32.474Z,1.33
2018-01-02T01:13:34.941Z,0.83
2018-01-02T01:14:37.393Z,1.13
2018-01-02T01:15:39.864Z,0.93
2018-01-02T01:16:42.336Z,0.60
2018-01-02T01:17:44.799Z,1.00
2018-01-02T01:18:47.264Z,1.20
2018-01-02T01:19:49.728Z,1.33
2018-01-02T01:20:52.181Z,0.90
2018-01-02T01:21:54.643Z,1.17
2018-01-02T01:22:57.089Z,1.47
2018-01-02T01:23:59.560Z,0.80
2018-01-02T01:25:02.010Z,1.27
2018-01-02T01:26:04.462Z,1.10
2018-01-02T01:27:06.940Z,1.60
2018-01-02T01:28:09.408Z,1.20
2018-01-02T01:29:11.858Z,1.33
2018-01-02T01:30:14.332Z,1.57
2018-01-02T01:31:16.796Z,0.90
2018-01-02T01:32:19.250Z,1.10
2018-01-02T01:33:21.707Z,1.63
2018-01-02T01:34:24.153Z,1.10
2018-01-02T01:35:26.642Z,0.70
2018-01-02T01:36:29.098Z,1.00
2018-01-02T01:37:31.563Z,1.07
2018-01-02T01:38:34.028Z,0.87
2018-01-02T01:39:36.495Z,1.33
2018-01-02T01:40:38.946Z,1.00
2018-01-02T01:41:41.415Z,0.80
2018-01-02T01:42:43.876Z,0.93
2018-01-02T01:43:46.330Z,1.10
2018-01-02T01:44:48.796Z,0.80
2018-01-02T01:45:51.251Z,1.33
2018-01-02T01:46:53.701Z,1.30
2018-01-02T01:47:56.150Z,1.00
2018-01-02T01:48:58.601Z,1.07
2018-01-02T01:50:01.068Z,1.00
2018-01-02T01:51:03.535Z,0.97
2018-01-02T01:52:06.001Z,1.10
2018-01-02T01:53:08.472Z,0.77
2018-01-02T01:54:10.939Z,0.80
2018-01-02T01:55:13.389Z,1.77
2018-01-02T01:56:15.854Z,1.13
2018-01-02T01:57:18.320Z,0.90
2018-01-02T01:58:20.785Z,1.40
2018-01-02T01:59:23.238Z,0.90
2018-01-02T02:00:25.690Z,0.80
2018-01-02T02:01:28.163Z,1.50
2018-01-02T02:02:30.627Z,0.73
2018-01-02T02:03:33.077Z,0.80
2018-01-02T02:04:35.539Z,0.80
2018-01-02T02:05:37.990Z,0.90
2018-01-02T02:06:40.441Z,1.00
2018-01-02T02:07:42.904Z,0.90
2018-01-02T02:08:45.368Z,0.80
2018-01-02T02:09:47.822Z,0.90
2018-01-02T02:10:50.277Z,0.70
2018-01-02T02:11:52.747Z,1.00
2018-01-02T02:12:55.216Z,0.73
2018-01-02T02:13:57.717Z,1.27
2018-01-02T02:15:00.156Z,0.80
2018-01-02T02:16:02.623Z,0.87
2018-01-02T02:17:05.092Z,1.00
2018-01-02T02:18:07.542Z,0.70
2018-01-02T02:19:10.004Z,1.30
2018-01-02T02:20:12.458Z,1.17
2018-01-02T02:21:14.933Z,0.77
2018-01-02T02:22:17.400Z,0.90
2018-01-02T02:23:19.866Z,0.70
2018-01-02T02:24:22.336Z,1.17
2018-01-02T02:25:24.801Z,0.93
2018-01-02T02:26:27.280Z,0.80
2018-01-02T02:27:29.796Z,0.70
2018-01-02T02:28:32.235Z,0.80
2018-01-02T02:29:34.690Z,1.00
2018-01-02T02:30:37.160Z,0.93
2018-01-02T02:31:39.627Z,0.80
2018-01-02T02:32:42.100Z,1.30
2018-01-02T02:33:44.549Z,0.90
2018-01-02T02:34:46.292Z,0.90
2018-01-02T02:35:48.752Z,1.03
2018-01-02T02:36:51.216Z,1.00
2018-01-02T02:37:53.679Z,1.10
2018-01-02T02:38:56.129Z,1.20
2018-01-02T02:39:58.582Z,0.93
2018-01-02T02:41:07.929Z,0.90
2018-01-02T02:42:10.386Z,1.47
2018-01-02T02:43:12.838Z,0.80
2018-01-02T02:44:15.308Z,0.60
2018-01-02T02:45:17.776Z,0.73
2018-01-02T02:46:20.249Z,0.80
2018-01-02T02:47:22.703Z,0.80
2018-01-02T02:48:25.149Z,0.73
2018-01-02T02:49:27.600Z,1.00
2018-01-02T02:50:30.076Z,0.83
2018-01-02T02:51:32.534Z,0.70
2018-01-02T02:52:34.981Z,0.80
2018-01-02T02:53:37.447Z,1.33
2018-01-02T02:54:39.909Z,0.70
2018-01-02T02:55:42.370Z,0.90
2018-01-02T02:56:44.929Z,0.90
2018-01-02T02:57:47.383Z,1.07
2018-01-02T02:58:49.864Z,1.00
2018-01-02T02:59:52.314Z,1.07
2018-01-02T03:00:54.779Z,0.97
2018-01-02T03:01:57.225Z,0.80
2018-01-02T03:02:59.692Z,0.70
2018-01-02T03:04:02.156Z,0.80
2018-01-02T03:05:04.619Z,0.73
2018-01-02T03:06:07.065Z,0.70
2018-01-02T03:07:09.613Z,1.03
2018-01-02T03:08:12.084Z,1.00
2018-01-02T03:09:14.540Z,0.90
2018-01-02T03:10:17.024Z,0.80
2018-01-02T03:11:19.474Z,0.70
2018-01-02T03:12:21.940Z,1.23
2018-01-02T03:13:24.410Z,0.70
2018-01-02T03:14:26.876Z,0.90
2018-01-02T03:15:29.340Z,1.00
2018-01-02T03:16:31.807Z,1.10
2018-01-02T03:17:34.266Z,0.87
2018-01-02T03:18:36.732Z,0.80
2018-01-02T03:19:39.196Z,0.87
2018-01-02T03:20:41.654Z,0.87
2018-01-02T03:21:44.116Z,0.77
2018-01-02T03:22:46.580Z,1.00
2018-01-02T03:23:49.048Z,0.67
2018-01-02T03:24:51.512Z,0.90
2018-01-02T03:25:53.992Z,0.70
2018-01-02T03:26:56.478Z,0.93
2018-01-02T03:27:58.929Z,1.00
2018-01-02T03:29:01.381Z,0.83
2018-01-02T03:30:03.832Z,1.00
2018-01-02T03:31:06.296Z,0.97
2018-01-02T03:32:08.764Z,0.70
2018-01-02T03:33:11.228Z,1.10
2018-01-02T03:34:13.700Z,0.80
2018-01-02T03:35:16.149Z,0.70
2018-01-02T03:36:18.597Z,1.17
2018-01-02T03:37:21.046Z,1.07
2018-01-02T03:38:23.516Z,0.70
2018-01-02T03:39:25.969Z,1.20
2018-01-02T03:40:28.420Z,1.53
2018-01-02T03:41:30.865Z,1.20
2018-01-02T03:42:33.318Z,0.90
2018-01-02T03:43:35.779Z,1.33
2018-01-02T03:44:38.239Z,0.90
2018-01-02T03:45:40.694Z,1.00
2018-01-02T03:46:43.184Z,1.33
2018-01-02T03:47:45.656Z,1.80
2018-01-02T03:48:48.124Z,1.27
2018-01-02T03:49:50.575Z,1.00
2018-01-02T03:50:53.027Z,1.07
2018-01-02T03:51:55.498Z,1.10
2018-01-02T03:52:57.950Z,1.03
2018-01-02T03:54:00.406Z,1.40
2018-01-02T03:55:02.872Z,0.70
2018-01-02T03:56:05.326Z,0.97
2018-01-02T03:57:07.777Z,1.27
2018-01-02T03:58:10.246Z,0.70
2018-01-02T03:59:12.699Z,1.03
2018-01-02T04:00:15.168Z,0.80
2018-01-02T04:01:17.625Z,1.20
2018-01-02T04:02:20.094Z,1.10
2018-01-02T04:03:22.545Z,0.97
2018-01-02T04:04:25.325Z,1.00
2018-01-02T04:05:27.791Z,0.97
2018-01-02T04:06:30.244Z,1.07
2018-01-02T04:07:32.698Z,1.13
2018-01-02T04:08:35.150Z,0.80
2018-01-02T04:09:37.612Z,0.97
2018-01-02T04:10:40.064Z,0.93
2018-01-02T04:11:42.523Z,1.13
2018-01-02T04:12:44.974Z,1.00
2018-01-02T04:13:47.429Z,0.90
2018-01-02T04:14:49.886Z,1.10
2018-01-02T04:15:52.434Z,0.90
2018-01-02T04:16:54.886Z,0.93
2018-01-02T04:17:57.348Z,1.03
2018-01-02T04:18:59.815Z,1.20
2018-01-02T04:20:02.277Z,1.43
2018-01-02T04:21:04.730Z,1.20
2018-01-02T04:22:07.190Z,0.97
2018-01-02T04:23:09.642Z,0.80
2018-01-02T04:24:12.108Z,1.00
2018-01-02T04:25:14.562Z,0.90
2018-01-02T04:26:17.013Z,0.60
2018-01-02T04:27:19.473Z,1.00
2018-01-02T04:28:21.951Z,1.23
2018-01-02T04:29:24.416Z,1.00
2018-01-02T04:30:26.933Z,1.00
2018-01-02T04:31:29.385Z,0.80
2018-01-02T04:32:31.841Z,0.80
2018-01-02T04:33:34.307Z,1.10
2018-01-02T04:34:36.775Z,1.00
2018-01-02T04:35:39.387Z,0.80
2018-01-02T04:36:42.935Z,1.00
2018-01-02T04:37:45.403Z,0.90
2018-01-02T04:38:47.866Z,0.83
2018-01-02T04:39:50.332Z,1.07
2018-01-02T04:40:52.782Z,0.90
2018-01-02T04:41:55.248Z,1.00
2018-01-02T04:42:57.718Z,1.33
2018-01-02T04:44:00.170Z,1.10
2018-01-02T04:45:02.624Z,1.47
2018-01-02T04:46:05.087Z,0.67
2018-01-02T04:47:07.556Z,0.80
2018-01-02T04:48:10.010Z,1.30
2018-01-02T04:49:12.476Z,0.90
2018-01-02T04:50:14.930Z,0.80
2018-01-02T04:51:17.395Z,1.13
2018-01-02T04:52:19.856Z,0.90
2018-01-02T04:53:22.324Z,0.93
2018-01-02T04:54:24.788Z,1.10
2018-01-02T04:55:27.247Z,1.60
2018-01-02T04:56:29.697Z,0.70
2018-01-02T04:57:32.150Z,0.93
2018-01-02T04:58:34.601Z,1.07
2018-01-02T04:59:37.062Z,0.80
2018-01-02T05:00:39.514Z,0.77
2018-01-02T05:01:41.995Z,0.90
2018-01-02T05:02:44.464Z,1.10
2018-01-02T05:03:48.229Z,0.87
2018-01-02T05:04:50.704Z,1.07
2018-01-02T05:05:53.153Z,0.90
2018-01-02T05:06:55.605Z,1.10
2018-01-02T05:07:58.058Z,0.80
2018-01-02T05:09:00.528Z,1.20
2018-01-02T05:10:02.996Z,0.93
2018-01-02T05:11:05.459Z,0.97
2018-01-02T05:12:07.910Z,0.87
2018-01-02T05:13:10.357Z,1.10
2018-01-02T05:14:12.809Z,1.43
2018-01-02T05:15:15.258Z,0.90
2018-01-02T05:16:17.728Z,0.87
2018-01-02T05:17:20.201Z,0.70
2018-01-02T05:18:22.671Z,0.80
2018-01-02T05:19:25.126Z,1.00
2018-01-02T05:20:27.589Z,0.90
2018-01-02T05:21:30.034Z,0.70
2018-01-02T05:22:32.495Z,0.80
2018-01-02T05:23:34.945Z,0.80
2018-01-02T05:24:37.398Z,1.07
2018-01-02T05:25:39.872Z,1.10
2018-01-02T05:26:42.360Z,0.70
2018-01-02T05:27:44.809Z,0.63
2018-01-02T05:28:47.285Z,0.70
2018-01-02T05:29:49.734Z,1.10
2018-01-02T05:30:52.186Z,0.80
2018-01-02T05:31:54.637Z,0.70
2018-01-02T05:32:57.107Z,0.90
2018-01-02T05:33:59.572Z,1.13
2018-01-02T05:35:02.028Z,1.10
2018-01-02T05:36:04.499Z,1.00
2018-01-02T05:37:06.950Z,0.77
2018-01-02T05:38:09.418Z,0.90
2018-01-02T05:39:11.893Z,0.70
2018-01-02T05:40:14.341Z,0.90
2018-01-02T05:41:16.804Z,0.70
2018-01-02T05:42:19.276Z,0.83
2018-01-02T05:43:21.734Z,1.00
2018-01-02T05:44:24.206Z,0.90
2018-01-02T05:45:26.676Z,0.90
2018-01-02T05:46:29.143Z,1.37
2018-01-02T05:47:31.597Z,1.27
2018-01-02T05:48:34.050Z,0.80
2018-01-02T05:49:36.507Z,0.60
2018-01-02T05:50:38.972Z,0.93
2018-01-02T05:51:41.437Z,0.80
2018-01-02T05:52:43.899Z,0.90
2018-01-02T05:53:46.364Z,1.00
2018-01-02T05:54:48.814Z,0.97
2018-01-02T05:55:51.279Z,0.80
2018-01-02T05:56:53.763Z,0.73
2018-01-02T05:57:56.236Z,0.60
2018-01-02T05:58:58.704Z,1.00
2018-01-02T06:00:01.168Z,0.67
2018-01-02T06:01:03.617Z,0.93
2018-01-02T06:02:06.065Z,0.87
2018-01-02T06:03:08.536Z,1.67
2018-01-02T06:04:11.048Z,0.73
2018-01-02T06:05:13.512Z,1.33
2018-01-02T06:06:15.962Z,1.00
2018-01-02T06:07:18.428Z,1.57
2018-01-02T06:08:20.921Z,1.10
2018-01-02T06:09:23.399Z,0.73
2018-01-02T06:10:25.864Z,0.80
2018-01-02T06:11:28.327Z,0.70
2018-01-02T06:12:30.781Z,0.60
2018-01-02T06:13:33.248Z,0.70
2018-01-02T06:14:35.766Z,0.97
2018-01-02T06:15:38.217Z,1.37
2018-01-02T06:16:40.680Z,0.80
2018-01-02T06:17:43.129Z,1.07
2018-01-02T06:18:45.581Z,0.80
2018-01-02T06:19:48.043Z,0.90
2018-01-02T06:20:50.512Z,0.93
2018-01-02T06:21:52.972Z,0.90
2018-01-02T06:22:55.423Z,1.10
2018-01-02T06:23:57.868Z,1.30
2018-01-02T06:25:00.405Z,1.00
2018-01-02T06:26:02.876Z,1.03
2018-01-02T06:27:05.344Z,0.70
2018-01-02T06:28:07.794Z,0.97
2018-01-02T06:29:10.273Z,0.90
2018-01-02T06:30:12.726Z,0.83
2018-01-02T06:31:15.207Z,1.10
2018-01-02T06:32:17.674Z,0.70
2018-01-02T06:33:20.126Z,0.70
2018-01-02T06:34:22.582Z,0.87
2018-01-02T06:35:25.034Z,0.80
2018-01-02T06:36:27.500Z,0.90
2018-01-02T06:37:29.967Z,0.80
2018-01-02T06:38:32.432Z,1.10
2018-01-02T06:39:34.890Z,1.00
2018-01-02T06:40:37.358Z,0.83
2018-01-02T06:41:39.824Z,0.80
2018-01-02T06:42:42.283Z,0.70
2018-01-02T06:43:44.734Z,0.80
2018-01-02T06:44:47.186Z,0.73
2018-01-02T06:45:49.641Z,0.90
2018-01-02T06:46:52.101Z,0.73
2018-01-02T06:47:54.569Z,0.90
2018-01-02T06:48:57.040Z,1.10
2018-01-02T06:49:59.505Z,0.90
2018-01-02T06:51:01.976Z,0.87
2018-01-02T06:52:04.444Z,0.70
2018-01-02T06:53:06.893Z,0.80
2018-01-02T06:54:09.362Z,1.00
2018-01-02T06:55:11.835Z,1.03
2018-01-02T06:56:14.300Z,0.63
2018-01-02T06:57:16.749Z,0.80
2018-01-02T06:58:19.198Z,0.90
2018-01-02T06:59:21.661Z,0.90
2018-01-02T07:00:24.109Z,0.90
2018-01-02T07:01:26.562Z,0.73
2018-01-02T07:02:29.032Z,0.90
2018-01-02T07:03:31.498Z,1.13
2018-01-02T07:04:33.976Z,1.20
2018-01-02T07:05:36.421Z,1.30
2018-01-02T07:06:38.878Z,0.90
2018-01-02T07:07:41.356Z,0.80
2018-01-02T07:08:43.818Z,1.00
2018-01-02T07:09:46.289Z,0.77
2018-01-02T07:10:48.747Z,0.70
2018-01-02T07:11:51.224Z,0.70
2018-01-02T07:12:53.682Z,0.70
2018-01-02T07:13:56.138Z,1.07
2018-01-02T07:14:58.604Z,0.80
2018-01-02T07:16:01.096Z,0.70
2018-01-02T07:17:03.565Z,0.80
2018-01-02T07:18:06.032Z,0.90
2018-01-02T07:19:08.485Z,0.70
2018-01-02T07:20:10.959Z,0.70
2018-01-02T07:21:13.423Z,0.80
2018-01-02T07:22:15.887Z,0.60
2018-01-02T07:23:18.349Z,1.10
2018-01-02T07:24:20.823Z,1.00
2018-01-02T07:25:23.283Z,1.27
2018-01-02T07:26:25.750Z,0.80
2018-01-02T07:27:28.233Z,1.00
2018-01-02T07:28:30.703Z,0.70
2018-01-02T07:29:33.158Z,0.80
2018-01-02T07:30:35.614Z,1.13
2018-01-02T07:31:38.088Z,0.70
2018-01-02T07:32:40.542Z,1.10
2018-01-02T07:33:42.999Z,0.90
2018-01-02T07:34:45.506Z,0.70
2018-01-02T07:35:47.966Z,0.80
2018-01-02T07:36:50.435Z,1.00
2018-01-02T07:37:52.889Z,0.80
2018-01-02T07:38:55.350Z,0.80
2018-01-02T07:39:57.809Z,0.73
2018-01-02T07:41:00.266Z,0.60
2018-01-02T07:42:02.738Z,1.37
2018-01-02T07:43:05.204Z,0.80
2018-01-02T07:44:07.676Z,1.20
2018-01-02T07:45:10.144Z,0.97
2018-01-02T07:46:12.602Z,0.83
2018-01-02T07:47:15.067Z,0.90
2018-01-02T07:48:17.553Z,0.60
2018-01-02T07:49:20.027Z,0.97
2018-01-02T07:50:22.500Z,1.03
2018-01-02T07:51:24.960Z,1.10
2018-01-02T07:52:27.418Z,0.70
2018-01-02T07:53:29.912Z,0.70
2018-01-02T07:54:32.366Z,1.00
2018-01-02T07:55:34.822Z,0.70
2018-01-02T07:56:37.277Z,1.10
2018-01-02T07:57:39.743Z,0.93
2018-01-02T07:58:42.232Z,1.00
2018-01-02T07:59:44.694Z,1.10
2018-01-02T08:00:47.168Z,1.00
2018-01-02T08:01:49.624Z,0.70
2018-01-02T08:02:52.111Z,0.80
2018-01-02T08:03:54.666Z,0.70
2018-01-02T08:04:57.155Z,1.70
2018-01-02T08:05:59.631Z,1.00
2018-01-02T08:07:02.090Z,0.70
2018-01-02T08:08:04.545Z,0.70
2018-01-02T08:09:07.037Z,0.67
2018-01-02T08:10:09.504Z,0.80
2018-01-02T08:11:11.962Z,1.27
2018-01-02T08:12:14.450Z,1.03
2018-01-02T08:13:16.902Z,0.87
2018-01-02T08:14:19.360Z,1.10
2018-01-02T08:15:21.821Z,1.00
2018-01-02T08:16:24.280Z,0.60
2018-01-02T08:17:26.748Z,0.70
2018-01-02T08:18:29.255Z,0.90
2018-01-02T08:19:31.727Z,1.23
2018-01-02T08:20:34.206Z,0.87
2018-01-02T08:21:36.676Z,0.90
2018-01-02T08:22:39.151Z,1.30
2018-01-02T08:23:41.614Z,0.90
2018-01-02T08:24:44.082Z,1.10
2018-01-02T08:25:46.567Z,1.13
2018-01-02T08:26:49.023Z,0.90
2018-01-02T08:27:51.478Z,1.20
2018-01-02T08:28:53.938Z,1.43
2018-01-02T08:29:56.409Z,2.13
2018-01-02T08:30:58.880Z,2.10
2018-01-02T08:32:01.334Z,1.93
2018-01-02T08:33:03.790Z,1.90
2018-01-02T08:34:06.264Z,2.20
2018-01-02T08:35:08.725Z,2.03
2018-01-02T08:36:11.219Z,1.57
2018-01-02T08:37:13.682Z,1.97
2018-01-02T08:38:16.153Z,1.93
2018-01-02T08:39:18.623Z,1.80
2018-01-02T08:40:21.105Z,2.20
2018-01-02T08:41:23.584Z,2.00
2018-01-02T08:42:26.052Z,1.73
2018-01-02T08:43:28.510Z,1.30
2018-01-02T08:44:30.980Z,1.50
2018-01-02T08:45:33.446Z,1.93
2018-01-02T08:46:35.902Z,2.97
2018-01-02T08:47:38.373Z,1.93
2018-01-02T08:48:40.826Z,1.87
2018-01-02T08:49:43.287Z,2.20
2018-01-02T08:50:45.746Z,1.70
2018-01-02T08:51:48.202Z,2.20
2018-01-02T08:52:50.672Z,1.47
2018-01-02T08:53:53.144Z,2.10
2018-01-02T08:54:55.617Z,2.30
2018-01-02T08:55:58.124Z,1.87
2018-01-02T08:57:00.593Z,1.77
2018-01-02T08:58:03.076Z,1.80
2018-01-02T08:59:05.587Z,2.13
2018-01-02T09:00:08.032Z,2.00
2018-01-02T09:01:10.490Z,1.60
2018-01-02T09:02:12.961Z,1.53
2018-01-02T09:03:15.422Z,1.73
2018-01-02T09:04:17.877Z,1.87
2018-01-02T09:05:20.334Z,2.53
2018-01-02T09:06:22.813Z,2.10
2018-01-02T09:07:25.286Z,1.80
2018-01-02T09:08:27.767Z,1.87
2018-01-02T09:09:30.236Z,2.10
2018-01-02T09:10:32.689Z,2.20
2018-01-02T09:11:35.160Z,1.70
2018-01-02T09:12:43.120Z,2.35
2018-01-02T09:13:51.350Z,2.20
2018-01-02T09:14:53.827Z,1.87
2018-01-02T09:15:56.316Z,1.80
2018-01-02T09:16:58.770Z,1.80
2018-01-02T09:18:01.227Z,2.23
2018-01-02T09:19:03.700Z,1.70
2018-01-02T09:20:06.158Z,2.10
2018-01-02T09:21:08.648Z,1.87
2018-01-02T09:22:11.122Z,2.40
2018-01-02T09:23:13.589Z,2.20
2018-01-02T09:24:16.064Z,2.53
2018-01-02T09:25:18.522Z,2.00
2018-01-02T09:26:21.001Z,2.17
2018-01-02T09:27:23.453Z,2.00
2018-01-02T09:28:25.918Z,2.20
2018-01-02T09:29:28.371Z,1.67
2018-01-02T09:30:30.830Z,2.00
2018-01-02T09:31:33.305Z,2.50
2018-01-02T09:32:35.774Z,1.77
2018-01-02T09:33:38.233Z,2.27
2018-01-02T09:34:40.703Z,1.93
2018-01-02T09:35:43.161Z,2.13
2018-01-02T09:36:45.638Z,1.97
2018-01-02T09:37:48.115Z,1.90
2018-01-02T09:38:50.592Z,1.63
2018-01-02T09:39:53.060Z,2.17
2018-01-02T09:40:55.531Z,1.57
2018-01-02T09:41:58.019Z,2.23
2018-01-02T09:43:00.492Z,1.57
2018-01-02T09:44:02.954Z,2.20
2018-01-02T09:45:05.466Z,2.20
2018-01-02T09:46:07.916Z,1.97
2018-01-02T09:47:10.408Z,2.13
2018-01-02T09:48:12.884Z,1.70
2018-01-02T09:49:15.342Z,1.60
2018-01-02T09:50:17.818Z,2.60
2018-01-02T09:51:20.294Z,2.07
2018-01-02T09:52:22.820Z,2.20
2018-01-02T09:53:25.312Z,2.10
2018-01-02T09:54:27.773Z,2.27
2018-01-02T09:55:30.281Z,2.27
2018-01-02T09:56:32.733Z,1.93
2018-01-02T09:57:35.228Z,2.50
2018-01-02T09:58:37.686Z,2.30
2018-01-02T09:59:40.156Z,1.87
2018-01-02T10:00:42.609Z,1.70
2018-01-02T10:01:45.074Z,2.10
2018-01-02T10:02:47.550Z,2.33
2018-01-02T10:03:50.002Z,1.80
2018-01-02T10:04:52.479Z,2.20
2018-01-02T10:05:54.938Z,2.17
2018-01-02T10:06:57.401Z,1.97
2018-01-02T10:07:59.914Z,2.57
2018-01-02T10:09:07.448Z,2.67
2018-01-02T10:10:09.915Z,1.77
2018-01-02T10:11:12.378Z,1.90
2018-01-02T10:12:14.862Z,2.20
2018-01-02T10:13:17.364Z,1.90
2018-01-02T10:14:19.817Z,1.60
2018-01-02T10:15:22.274Z,1.70
2018-01-02T10:16:24.725Z,2.30
2018-01-02T10:17:27.185Z,2.07
2018-01-02T10:18:29.730Z,2.20
2018-01-02T10:19:32.200Z,1.80
2018-01-02T10:20:34.654Z,2.00
2018-01-02T10:21:37.132Z,1.97
2018-01-02T10:22:39.594Z,2.13
2018-01-02T10:23:42.091Z,2.20
2018-01-02T10:24:44.563Z,1.50
2018-01-02T10:25:47.036Z,2.20
2018-01-02T10:26:49.509Z,1.80
2018-01-02T10:27:51.988Z,1.90
2018-01-02T10:28:54.480Z,1.83
2018-01-02T10:29:56.948Z,1.97
2018-01-02T10:30:59.440Z,1.77
2018-01-02T10:32:01.898Z,1.70
2018-01-02T10:33:04.376Z,2.00
2018-01-02T10:34:06.873Z,1.70
2018-01-02T10:35:09.344Z,1.50
2018-01-02T10:36:11.812Z,1.50
2018-01-02T10:37:14.455Z,1.50
2018-01-02T10:38:16.965Z,1.77
2018-01-02T10:39:19.463Z,1.83
2018-01-02T10:40:21.939Z,2.03
2018-01-02T10:41:24.398Z,2.00
2018-01-02T10:42:26.854Z,1.93
2018-01-02T10:43:29.323Z,1.77
2018-01-02T10:44:31.801Z,1.63
2018-01-02T10:45:34.272Z,1.60
2018-01-02T10:46:36.730Z,1.83
2018-01-02T10:47:39.182Z,1.43
2018-01-02T10:48:41.637Z,2.20
2018-01-02T10:49:44.188Z,1.30
2018-01-02T10:50:46.642Z,2.07
2018-01-02T10:51:49.111Z,1.80
2018-01-02T10:52:51.570Z,1.83
2018-01-02T10:53:54.045Z,1.67
2018-01-02T10:54:56.522Z,1.90
2018-01-02T10:55:59.002Z,1.40
2018-01-02T10:57:01.488Z,1.30
2018-01-02T10:58:03.950Z,1.40
2018-01-02T10:59:06.420Z,1.60
2018-01-02T11:00:08.913Z,2.07
2018-01-02T11:01:11.380Z,1.70
2018-01-02T11:02:13.838Z,1.80
2018-01-02T11:03:16.308Z,1.83
2018-01-02T11:04:18.766Z,1.57
2018-01-02T11:05:21.260Z,1.53
2018-01-02T11:06:23.721Z,2.30
2018-01-02T11:07:26.188Z,2.07
2018-01-02T11:08:28.646Z,2.43
2018-01-02T11:09:31.121Z,1.93
2018-01-02T11:10:39.113Z,1.67
2018-01-02T11:11:41.588Z,1.80
2018-01-02T11:12:49.710Z,2.10
2018-01-02T11:13:54.027Z,1.40
2018-01-02T11:14:57.143Z,1.23
2018-01-02T11:15:59.643Z,1.73
2018-01-02T11:17:02.569Z,1.97
2018-01-02T11:18:05.040Z,1.80
2018-01-02T11:19:07.494Z,1.37
2018-01-02T11:20:09.946Z,1.30
2018-01-02T11:21:12.449Z,1.80
2018-01-02T11:22:14.906Z,1.60
2018-01-02T11:23:17.372Z,1.50
2018-01-02T11:24:19.848Z,1.20
2018-01-02T11:25:22.458Z,1.40
2018-01-02T11:26:25.912Z,1.50
2018-01-02T11:27:28.388Z,1.90
2018-01-02T11:28:31.123Z,1.63
2018-01-02T11:29:33.790Z,1.53
2018-01-02T11:30:36.246Z,1.73
2018-01-02T11:31:40.620Z,1.10
2018-01-02T11:32:43.092Z,1.60
2018-01-02T11:33:45.565Z,1.60
2018-01-02T11:34:48.052Z,1.30
2018-01-02T11:35:51.255Z,1.43
2018-01-02T11:36:53.810Z,1.80
2018-01-02T11:37:56.336Z,1.40
2018-01-02T11:38:58.811Z,1.20
2018-01-02T11:40:01.283Z,1.37
2018-01-02T11:41:03.746Z,1.50
2018-01-02T11:42:06.260Z,1.40
2018-01-02T11:43:08.778Z,1.83
2018-01-02T11:44:11.234Z,1.27
2018-01-02T11:45:13.705Z,1.57
2018-01-02T11:46:16.178Z,1.50
2018-01-02T11:47:18.684Z,1.63
2018-01-02T11:48:21.164Z,1.57
2018-01-02T11:49:23.625Z,1.60
2018-01-02T11:50:26.116Z,1.50
2018-01-02T11:51:28.588Z,1.80
2018-01-02T11:52:31.066Z,1.77
2018-01-02T11:53:33.540Z,1.80
2018-01-02T11:54:36.012Z,1.50
2018-01-02T11:55:38.475Z,1.97
2018-01-02T11:56:40.944Z,1.50
2018-01-02T11:57:43.436Z,1.87
2018-01-02T11:58:45.988Z,1.53
2018-01-02T11:59:48.445Z,1.57
2018-01-02T12:00:51.099Z,2.23
2018-01-02T12:01:54.122Z,2.30
2018-01-02T12:02:57.350Z,2.20
2018-01-02T12:03:59.812Z,1.80
2018-01-02T12:05:02.308Z,1.30
2018-01-02T12:06:04.794Z,2.00
2018-01-02T12:07:07.254Z,1.87
2018-01-02T12:08:09.757Z,1.73
2018-01-02T12:09:12.209Z,1.67
2018-01-02T12:10:14.667Z,1.90
2018-01-02T12:11:17.132Z,1.90
2018-01-02T12:12:19.594Z,1.77
2018-01-02T12:13:22.077Z,2.27
2018-01-02T12:14:24.557Z,1.83
2018-01-02T12:15:27.032Z,2.50
2018-01-02T12:16:29.504Z,2.27
2018-01-02T12:17:31.962Z,1.90
2018-01-02T12:18:34.467Z,2.00
2018-01-02T12:19:37.028Z,2.03
2018-01-02T12:20:39.587Z,1.90
2018-01-02T12:21:41.994Z,1.53
2018-01-02T12:22:44.469Z,2.00
2018-01-02T12:23:46.958Z,2.10
2018-01-02T12:24:49.418Z,2.13
2018-01-02T12:25:51.906Z,1.97
2018-01-02T12:26:54.432Z,2.00
2018-01-02T12:27:56.906Z,1.90
2018-01-02T12:28:59.392Z,1.80
2018-01-02T12:30:01.850Z,1.73
2018-01-02T12:31:04.319Z,2.20
2018-01-02T12:32:06.786Z,1.93
2018-01-02T12:33:09.288Z,1.90
2018-01-02T12:34:11.776Z,1.60
2018-01-02T12:35:14.252Z,1.80
2018-01-02T12:36:16.728Z,2.43
2018-01-02T12:37:19.182Z,1.90
2018-01-02T12:38:21.758Z,1.80
2018-01-02T12:39:24.261Z,2.10
2018-01-02T12:40:26.727Z,2.37
2018-01-02T12:41:29.182Z,2.20
2018-01-02T12:42:31.648Z,1.73
2018-01-02T12:43:34.102Z,2.00
2018-01-02T12:44:36.610Z,1.90
2018-01-02T12:45:39.090Z,1.60
2018-01-02T12:46:41.543Z,1.50
2018-01-02T12:47:44.024Z,1.87
2018-01-02T12:48:46.482Z,1.60
2018-01-02T12:49:48.977Z,1.87
2018-01-02T12:50:51.448Z,2.13
2018-01-02T12:51:53.920Z,1.70
2018-01-02T12:52:56.400Z,2.00
2018-01-02T12:53:58.876Z,1.70
2018-01-02T12:55:01.370Z,1.67
2018-01-02T12:56:03.854Z,1.67
2018-01-02T12:57:06.311Z,1.73
2018-01-02T12:58:08.774Z,1.30
2018-01-02T12:59:11.249Z,2.10
2018-01-02T13:00:13.734Z,1.73
2018-01-02T13:01:16.208Z,1.50
2018-01-02T13:02:18.661Z,1.50
2018-01-02T13:03:21.120Z,1.90
2018-01-02T13:04:23.590Z,1.70
2018-01-02T13:05:26.090Z,1.57
2018-01-02T13:06:28.941Z,1.30
2018-01-02T13:07:31.449Z,1.30
2018-01-02T13:08:33.912Z,1.87
2018-01-02T13:09:36.378Z,1.67
2018-01-02T13:10:38.893Z,1.60
2018-01-02T13:11:41.364Z,1.63
2018-01-02T13:12:43.831Z,1.40
2018-01-02T13:13:46.399Z,1.60
2018-01-02T13:14:48.903Z,1.60
2018-01-02T13:15:51.387Z,1.27
2018-01-02T13:16:53.852Z,1.43
2018-01-02T13:17:56.320Z,1.47
2018-01-02T13:18:58.774Z,1.43
2018-01-02T13:20:01.510Z,1.50
2018-01-02T13:21:03.992Z,1.57
2018-01-02T13:22:06.446Z,1.63
2018-01-02T13:23:08.915Z,1.60
2018-01-02T13:24:11.370Z,1.50
2018-01-02T13:25:13.841Z,1.60
2018-01-02T13:26:16.298Z,1.50
2018-01-02T13:27:18.867Z,1.20
2018-01-02T13:28:21.350Z,1.70
2018-01-02T13:29:23.818Z,0.90
2018-01-02T13:30:26.288Z,1.53
2018-01-02T13:31:28.760Z,1.10
2018-01-02T13:32:31.227Z,1.27
2018-01-02T13:33:33.761Z,1.70
2018-01-02T13:34:36.235Z,1.83
2018-01-02T13:35:38.685Z,1.30
2018-01-02T13:36:41.161Z,1.30
2018-01-02T13:37:43.613Z,1.40
2018-01-02T13:38:46.083Z,1.23
2018-01-02T13:39:48.550Z,1.20
2018-01-02T13:40:51.014Z,1.23
2018-01-02T13:41:53.534Z,1.17
2018-01-02T13:42:56.191Z,1.60
2018-01-02T13:43:58.681Z,1.00
2018-01-02T13:45:01.138Z,1.07
2018-01-02T13:46:03.597Z,1.53
2018-01-02T13:47:06.065Z,1.20
2018-01-02T13:48:08.535Z,1.37
2018-01-02T13:49:10.998Z,1.40
2018-01-02T13:50:13.458Z,1.43
2018-01-02T13:51:15.913Z,1.40
2018-01-02T13:52:18.446Z,1.13